Time;durP1;ratioP1;P1;durP2;ratioP2;P2;SDS_P1;SDS_P2;PMS_P1;PMS_P2;Temp;Humidity;BMP_temperature;BMP_pressure;BME280_temperature;BME280_humidity;BME280_pressure;Samples;Min_cycle;Max_cycle;Signal;HPM_P1;HPM_P2
2021/08/11 00:02:22;;;;;;;4.68;2.90;;;;;;;19.27;65.41;97505.81;4994353;28;20038;-78
2021/08/11 00:04:47;;;;;;;3.72;2.67;;;;;;;19.27;65.49;97503.19;4992241;28;20121;-78
2021/08/11 00:07:15;;;;;;;4.70;2.92;;;;;;;19.38;65.33;97516.19;4995807;28;20595;-78
2021/08/11 00:09:40;;;;;;;5.03;3.22;;;;;;;19.33;65.90;97505.72;5009171;28;20112;-78
2021/08/11 00:12:06;;;;;;;4.10;2.55;;;;;;;19.36;65.67;97510.41;5010500;28;20547;-78
2021/08/11 00:14:31;;;;;;;4.00;3.25;;;;;;;19.37;65.83;97512.00;5009279;28;20037;-78
2021/08/11 00:16:57;;;;;;;3.65;3.28;;;;;;;19.38;65.74;97505.63;4987823;28;20030;-78
2021/08/11 00:19:22;;;;;;;3.75;2.72;;;;;;;19.35;66.02;97495.69;4997845;28;20030;-78
2021/08/11 00:21:48;;;;;;;2.92;2.65;;;;;;;19.34;65.86;97502.00;4994881;28;20033;-78
2021/08/11 00:24:14;;;;;;;2.83;2.60;;;;;;;19.35;65.53;97504.38;4978324;28;20424;-78
2021/08/11 00:26:39;;;;;;;3.10;2.67;;;;;;;19.30;65.77;97493.13;5008852;28;20044;-78
2021/08/11 00:29:04;;;;;;;3.05;2.72;;;;;;;19.28;65.44;97496.84;5009005;28;20372;-78
2021/08/11 00:31:30;;;;;;;4.05;2.92;;;;;;;19.30;65.60;97501.81;4992076;28;20033;-78
2021/08/11 00:33:56;;;;;;;3.92;3.33;;;;;;;19.28;65.26;97498.69;4976354;28;20120;-79
2021/08/11 00:36:21;;;;;;;5.70;3.40;;;;;;;19.29;65.37;97489.69;4975970;28;20133;-78
2021/08/11 00:38:46;;;;;;;3.03;2.75;;;;;;;19.28;65.58;97494.19;4992151;28;20091;-78
2021/08/11 00:41:12;;;;;;;3.45;2.88;;;;;;;19.26;66.23;97491.06;4975804;28;20657;-78
2021/08/11 00:43:37;;;;;;;6.30;3.33;;;;;;;19.29;65.76;97487.03;4976133;28;20029;-78
2021/08/11 00:46:07;;;;;;;4.05;3.00;;;;;;;19.20;65.76;97500.16;5008663;28;20053;-78
2021/08/11 00:48:32;;;;;;;4.13;2.88;;;;;;;19.36;65.33;97499.84;5008730;28;20048;-79
2021/08/11 00:50:58;;;;;;;6.75;3.50;;;;;;;19.33;65.70;97492.53;5006633;28;20026;-78
2021/08/11 00:53:27;;;;;;;4.20;3.08;;;;;;;19.37;66.01;97504.84;4976314;28;20531;-78
2021/08/11 00:55:55;;;;;;;3.63;3.22;;;;;;;19.32;66.08;97506.81;5008715;28;20120;-78
2021/08/11 00:58:20;;;;;;;4.18;3.28;;;;;;;19.41;65.86;97502.41;4963084;28;20151;-78
2021/08/11 01:00:47;;;;;;;4.00;3.40;;;;;;;19.43;66.00;97503.69;4973180;28;20061;-78
2021/08/11 01:03:21;;;;;;;4.32;2.85;;;;;;;19.35;66.30;97511.50;5009271;22;20123;-78
2021/08/11 01:05:47;;;;;;;5.15;2.88;;;;;;;19.48;66.12;97502.78;4969093;28;20040;-78
2021/08/11 01:08:13;;;;;;;4.20;2.65;;;;;;;19.53;66.04;97507.19;4960959;28;20527;-76
2021/08/11 01:10:39;;;;;;;3.30;3.00;;;;;;;19.44;66.01;97509.75;4982084;28;20042;-76
2021/08/11 01:13:05;;;;;;;4.45;3.13;;;;;;;19.43;66.16;97508.16;4983483;28;20604;-76
2021/08/11 01:15:31;;;;;;;3.60;3.00;;;;;;;19.42;65.96;97506.63;4973351;28;20109;-76
2021/08/11 01:17:56;;;;;;;4.55;3.20;;;;;;;19.40;66.01;97506.13;4956120;28;20390;-76
2021/08/11 01:20:21;;;;;;;4.85;3.53;;;;;;;19.34;65.98;97504.66;4981105;28;20049;-76
2021/08/11 01:22:54;;;;;;;3.25;2.80;;;;;;;19.22;66.18;97505.91;4981668;28;20050;-76
2021/08/11 01:25:35;;;;;;;4.45;3.55;;;;;;;19.21;66.22;97509.66;4966570;28;20061;-76
2021/08/11 01:28:06;;;;;;;4.60;3.03;;;;;;;19.23;65.91;97501.44;4971483;28;20077;-76
2021/08/11 01:31:00;;;;;;;3.30;2.88;;;;;;;19.22;66.07;97502.50;4954969;28;20057;-76
2021/08/11 01:33:47;;;;;;;6.93;2.97;;;;;;;19.20;66.07;97500.16;4988158;28;20547;-76
2021/08/11 01:36:36;;;;;;;4.78;2.97;;;;;;;19.23;66.25;97502.22;4987452;28;20034;-76
2021/08/11 01:39:11;;;;;;;4.97;3.33;;;;;;;19.25;66.32;97494.78;4970392;28;20508;-76
2021/08/11 01:41:41;;;;;;;3.63;3.17;;;;;;;19.35;66.03;97490.41;4971046;28;20026;-76
2021/08/11 01:44:07;;;;;;;4.05;3.10;;;;;;;19.46;66.19;97489.88;4987027;28;20038;-76
2021/08/11 01:46:36;;;;;;;5.63;2.97;;;;;;;19.45;66.03;97493.59;4981246;28;20070;-76
2021/08/11 01:49:07;;;;;;;3.72;3.33;;;;;;;19.62;65.57;97505.41;4986843;28;20405;-76
2021/08/11 01:51:32;;;;;;;4.18;3.47;;;;;;;19.63;65.34;97496.44;4980869;28;20033;-76
2021/08/11 01:53:58;;;;;;;3.67;3.35;;;;;;;19.56;65.38;97482.84;4972238;28;20034;-76
2021/08/11 01:56:23;;;;;;;4.53;3.50;;;;;;;19.53;65.46;97491.34;4987302;28;20033;-76
2021/08/11 01:58:50;;;;;;;3.72;2.78;;;;;;;19.50;65.83;97479.53;4980917;28;20035;-76
2021/08/11 02:01:15;;;;;;;6.20;2.78;;;;;;;19.59;65.83;97485.69;4981057;28;20038;-76
2021/08/11 02:03:41;;;;;;;4.47;3.45;;;;;;;19.55;66.18;97482.06;4964960;28;20091;-76
2021/08/11 02:06:07;;;;;;;3.40;2.95;;;;;;;19.52;66.13;97479.22;4950105;28;20105;-76
2021/08/11 02:08:32;;;;;;;4.07;3.03;;;;;;;19.56;65.91;97496.81;4964202;28;20039;-76
2021/08/11 02:10:59;;;;;;;3.63;3.33;;;;;;;19.54;65.91;97485.78;4948016;28;20143;-76
2021/08/11 02:13:25;;;;;;;4.15;3.15;;;;;;;19.55;66.14;97487.34;4933635;28;20027;-76
2021/08/11 02:15:51;;;;;;;5.55;3.42;;;;;;;19.54;66.41;97485.00;4965632;28;20037;-76
2021/08/11 02:18:17;;;;;;;4.30;3.30;;;;;;;19.52;66.34;97487.13;4953589;28;20485;-76
2021/08/11 02:20:43;;;;;;;3.95;3.13;;;;;;;19.57;66.05;97493.13;4984652;28;20137;-76
2021/08/11 02:23:13;;;;;;;3.80;3.40;;;;;;;19.53;65.89;97496.63;4982906;28;20359;-76
2021/08/11 02:26:11;;;;;;;3.97;2.95;;;;;;;19.41;66.10;97499.75;4983683;28;20275;-76
2021/08/11 02:29:10;;;;;;;4.45;2.92;;;;;;;19.40;66.64;97495.56;4969723;28;20057;-76
2021/08/11 02:32:10;;;;;;;5.47;3.38;;;;;;;19.44;66.49;97493.91;4969061;28;20030;-76
2021/08/11 02:35:06;;;;;;;4.20;3.20;;;;;;;19.41;66.58;97491.84;4953771;28;20254;-76
2021/08/11 02:37:39;;;;;;;4.63;3.03;;;;;;;19.43;66.34;97493.13;4969262;28;20453;-76
2021/08/11 02:40:14;;;;;;;5.20;3.28;;;;;;;19.57;66.15;97497.59;4945988;28;20537;-76
2021/08/11 02:42:52;;;;;;;3.83;2.90;;;;;;;19.32;66.39;97490.97;4949962;28;20368;-76
2021/08/11 02:45:18;;;;;;;3.63;2.90;;;;;;;19.49;66.08;97487.75;4963785;28;20061;-76
2021/08/11 02:47:44;;;;;;;5.50;2.88;;;;;;;19.48;66.13;97486.94;4943318;28;20046;-76
2021/08/11 02:50:10;;;;;;;3.70;3.17;;;;;;;19.44;66.28;97488.63;4949027;28;20045;-76
2021/08/11 02:52:37;;;;;;;5.72;3.20;;;;;;;19.34;66.58;97489.59;4949751;28;20811;-76
2021/08/11 02:55:04;;;;;;;3.53;3.10;;;;;;;19.35;66.57;97490.41;4962475;28;20133;-76
2021/08/11 02:57:29;;;;;;;4.10;3.33;;;;;;;19.39;66.35;97491.34;4947849;28;20038;-76
2021/08/11 02:59:55;;;;;;;4.70;2.90;;;;;;;19.39;66.11;97496.63;4963111;28;20042;-76
2021/08/11 03:02:24;;;;;;;3.42;3.03;;;;;;;19.31;66.21;97492.81;4969725;28;20417;-76
2021/08/11 03:04:50;;;;;;;3.42;2.97;;;;;;;19.36;66.30;97491.94;4953008;28;20069;-76
2021/08/11 03:07:16;;;;;;;3.60;3.30;;;;;;;19.33;66.35;97495.97;4943684;28;20038;-76
2021/08/11 03:09:41;;;;;;;4.28;3.30;;;;;;;19.27;66.65;97503.19;4965395;28;20047;-76
2021/08/11 03:12:09;;;;;;;3.75;2.80;;;;;;;19.21;66.46;97496.44;4963349;28;20030;-76
2021/08/11 03:14:35;;;;;;;5.47;2.95;;;;;;;19.32;66.18;97501.53;4947433;28;20169;-76
2021/08/11 03:17:07;;;;;;;3.15;2.80;;;;;;;19.16;66.67;97499.19;4953755;28;20042;-76
2021/08/11 03:19:33;;;;;;;4.28;3.30;;;;;;;19.32;66.57;97506.81;4949343;28;20438;-76
2021/08/11 03:21:58;;;;;;;4.38;3.50;;;;;;;19.28;66.74;97502.13;4950520;28;20043;-76
2021/08/11 03:24:24;;;;;;;3.85;2.90;;;;;;;19.26;66.81;97504.28;4959594;28;20517;-76
2021/08/11 03:26:49;;;;;;;4.20;3.80;;;;;;;19.23;66.50;97496.94;4969736;28;20389;-76
2021/08/11 03:29:15;;;;;;;5.15;3.30;;;;;;;19.24;66.68;97506.41;4950765;28;20035;-76
2021/08/11 03:31:40;;;;;;;3.72;3.30;;;;;;;19.26;66.57;97500.81;4949880;28;20058;-76
2021/08/11 03:34:06;;;;;;;5.22;3.13;;;;;;;19.25;66.92;97496.63;4986633;28;20033;-76
2021/08/11 03:36:31;;;;;;;4.93;3.50;;;;;;;19.31;66.53;97506.00;4988395;28;20097;-76
2021/08/11 03:38:56;;;;;;;4.53;3.42;;;;;;;19.33;66.68;97503.09;4971671;28;20030;-76
2021/08/11 03:41:22;;;;;;;5.80;3.70;;;;;;;19.31;66.79;97495.44;4945677;28;20030;-76
2021/08/11 03:43:47;;;;;;;4.00;2.92;;;;;;;19.32;66.70;97493.63;4969109;28;20061;-76
2021/08/11 03:46:15;;;;;;;4.78;3.47;;;;;;;19.30;66.73;97498.41;4956827;28;20542;-76
2021/08/11 03:48:40;;;;;;;5.35;4.00;;;;;;;19.29;66.65;97492.31;4970069;28;20092;-76
2021/08/11 03:51:06;;;;;;;3.33;2.90;;;;;;;19.30;66.77;97503.69;4969156;28;20477;-76
2021/08/11 03:53:31;;;;;;;3.83;3.25;;;;;;;19.26;66.64;97500.81;4969397;28;20113;-76
2021/08/11 03:55:56;;;;;;;4.60;3.28;;;;;;;19.23;66.75;97493.50;4951853;28;20113;-76
2021/08/11 03:58:22;;;;;;;4.15;3.28;;;;;;;19.22;66.96;97503.28;4970214;28;20113;-76
2021/08/11 04:00:47;;;;;;;4.68;3.30;;;;;;;19.21;67.01;97493.81;4970133;28;20029;-76
2021/08/11 04:03:12;;;;;;;4.63;3.60;;;;;;;19.26;66.86;97509.53;4967553;28;20031;-76
2021/08/11 04:05:38;;;;;;;3.13;2.78;;;;;;;19.26;67.18;97499.00;4991749;28;20097;-76
2021/08/11 04:08:03;;;;;;;4.15;3.70;;;;;;;19.28;66.89;97498.69;4952737;28;20456;-76
2021/08/11 04:10:29;;;;;;;4.43;3.55;;;;;;;19.30;66.96;97498.41;4974721;28;20392;-76
2021/08/11 04:12:54;;;;;;;4.47;3.22;;;;;;;19.32;67.24;97493.63;4941779;28;20377;-76
2021/08/11 04:15:19;;;;;;;3.78;3.30;;;;;;;19.31;67.05;97497.31;4958211;28;20027;-76
2021/08/11 04:17:45;;;;;;;3.90;3.55;;;;;;;19.32;67.03;97504.16;4974061;28;20026;-76
2021/08/11 04:20:14;;;;;;;3.88;3.15;;;;;;;19.23;67.00;97501.44;4973959;28;20031;-76
2021/08/11 04:22:39;;;;;;;5.07;3.38;;;;;;;19.35;66.60;97500.94;4971097;28;20524;-76
2021/08/11 04:25:05;;;;;;;4.13;3.13;;;;;;;19.35;67.07;97509.66;4941506;28;20058;-76
2021/08/11 04:27:30;;;;;;;4.72;3.38;;;;;;;19.39;66.98;97502.69;4973770;28;20392;-76
2021/08/11 04:29:56;;;;;;;3.78;3.13;;;;;;;19.40;67.15;97508.78;4957258;28;20026;-76
2021/08/11 04:32:21;;;;;;;3.72;3.15;;;;;;;19.42;67.13;97517.97;4941677;28;20034;-76
2021/08/11 04:34:47;;;;;;;3.92;3.53;;;;;;;19.41;66.88;97516.38;4957167;28;20030;-76
2021/08/11 04:37:15;;;;;;;4.07;3.20;;;;;;;19.40;66.99;97516.69;4971297;28;20096;-76
2021/08/11 04:39:40;;;;;;;5.35;3.28;;;;;;;19.37;67.55;97515.41;4973729;28;20099;-76
2021/08/11 04:42:06;;;;;;;5.95;3.83;;;;;;;19.37;67.33;97522.56;4956976;28;20046;-76
2021/08/11 04:44:31;;;;;;;4.18;3.17;;;;;;;19.39;67.18;97523.03;4957653;28;20043;-76
2021/08/11 04:46:58;;;;;;;5.38;4.22;;;;;;;19.47;67.03;97522.38;4950771;28;20444;-76
2021/08/11 04:49:24;;;;;;;6.57;3.55;;;;;;;19.48;66.82;97521.28;4949403;28;20489;-76
2021/08/11 04:51:49;;;;;;;5.32;3.65;;;;;;;19.50;67.19;97523.63;4957065;28;20385;-76
2021/08/11 04:54:15;;;;;;;5.28;3.35;;;;;;;19.56;67.10;97533.81;4954754;28;20049;-76
2021/08/11 04:56:44;;;;;;;3.30;3.00;;;;;;;19.50;67.18;97534.19;4973482;28;20064;-76
2021/08/11 04:59:09;;;;;;;4.13;3.03;;;;;;;19.55;66.89;97526.97;4957110;28;20026;-76
2021/08/11 05:01:35;;;;;;;4.40;2.85;;;;;;;19.61;67.19;97532.94;4971147;28;20034;-76
2021/08/11 05:04:00;;;;;;;4.72;3.40;;;;;;;19.62;66.97;97529.19;4983326;28;20049;-76
2021/08/11 05:06:25;;;;;;;3.92;3.55;;;;;;;19.63;66.82;97528.91;4958629;28;20038;-76
2021/08/11 05:08:51;;;;;;;4.38;3.38;;;;;;;19.65;66.94;97532.06;4969710;28;20057;-76
2021/08/11 05:11:16;;;;;;;3.95;3.00;;;;;;;19.64;66.90;97533.13;4940169;28;20065;-76
2021/08/11 05:13:43;;;;;;;4.53;3.28;;;;;;;19.70;66.91;97530.38;4964279;28;20045;-76
2021/08/11 05:16:08;;;;;;;4.13;3.20;;;;;;;19.72;66.93;97526.34;4973944;28;20053;-76
2021/08/11 05:18:34;;;;;;;5.70;3.63;;;;;;;19.74;66.84;97536.63;4990881;28;20034;-76
2021/08/11 05:20:59;;;;;;;3.83;3.08;;;;;;;19.76;66.86;97537.94;4964749;28;20031;-76
2021/08/11 05:23:26;;;;;;;3.38;3.08;;;;;;;19.79;67.13;97529.44;4973592;28;20026;-76
2021/08/11 05:25:52;;;;;;;4.35;3.45;;;;;;;19.85;67.29;97538.03;4958030;28;20713;-76
2021/08/11 05:28:17;;;;;;;4.53;3.40;;;;;;;19.86;67.51;97526.38;4945531;28;20121;-76
2021/08/11 05:30:42;;;;;;;5.97;4.28;;;;;;;19.92;67.07;97530.47;4986661;28;20086;-76
2021/08/11 05:33:08;;;;;;;3.33;2.78;;;;;;;19.97;66.77;97537.53;4953605;28;20039;-76
2021/08/11 05:35:33;;;;;;;3.38;3.08;;;;;;;20.01;66.65;97535.84;4987526;28;20038;-76
2021/08/11 05:37:59;;;;;;;3.85;3.28;;;;;;;20.04;66.44;97537.13;4954224;28;20478;-76
2021/08/11 05:40:24;;;;;;;4.85;3.20;;;;;;;20.09;66.25;97544.94;4972786;28;20038;-76
2021/08/11 05:42:49;;;;;;;4.07;3.22;;;;;;;20.16;66.17;97547.97;4972151;28;20030;-76
2021/08/11 05:45:15;;;;;;;3.92;3.53;;;;;;;20.20;65.67;97557.66;4952652;28;20038;-76
2021/08/11 05:47:44;;;;;;;3.83;3.35;;;;;;;20.09;65.30;97552.88;4956338;28;20432;-76
2021/08/11 05:50:10;;;;;;;5.43;3.20;;;;;;;20.18;65.29;97553.72;4956277;28;20481;-76
2021/08/11 05:52:35;;;;;;;3.85;3.45;;;;;;;20.18;65.81;97554.50;4950069;28;20088;-76
2021/08/11 05:55:01;;;;;;;3.47;3.13;;;;;;;20.23;66.31;97560.78;4966645;28;20110;-76
2021/08/11 05:57:26;;;;;;;5.40;3.00;;;;;;;20.28;66.39;97556.16;4955860;28;20093;-76
2021/08/11 05:59:52;;;;;;;4.70;3.60;;;;;;;20.31;66.29;97557.44;4971629;28;20042;-76
2021/08/11 06:02:17;;;;;;;3.47;3.10;;;;;;;20.38;65.93;97563.09;4963373;28;20138;-76
2021/08/11 06:04:43;;;;;;;4.10;3.10;;;;;;;20.42;65.86;97564.03;4955340;28;20042;-76
2021/08/11 06:07:08;;;;;;;3.58;3.28;;;;;;;20.53;66.29;97565.38;4983995;28;20042;-76
2021/08/11 06:09:34;;;;;;;4.80;4.20;;;;;;;20.63;65.97;97558.31;4955258;28;20499;-76
2021/08/11 06:11:59;;;;;;;3.65;3.10;;;;;;;20.73;65.64;97566.81;4967698;28;20034;-76
2021/08/11 06:14:25;;;;;;;3.80;3.05;;;;;;;20.80;65.59;97562.94;4971548;28;20429;-76
2021/08/11 06:16:50;;;;;;;4.53;3.15;;;;;;;20.85;64.58;97565.47;4923581;28;20141;-76
2021/08/11 06:19:16;;;;;;;3.88;3.22;;;;;;;20.79;64.37;97561.41;4954648;28;20092;-76
2021/08/11 06:21:41;;;;;;;4.40;3.35;;;;;;;20.74;64.77;97560.44;4989161;28;20503;-76
2021/08/11 06:24:06;;;;;;;3.80;2.90;;;;;;;20.74;65.18;97559.66;4971341;28;20022;-76
2021/08/11 06:26:34;;;;;;;4.28;3.40;;;;;;;20.69;65.68;97563.19;4966461;28;20031;-76
2021/08/11 06:28:59;;;;;;;5.10;3.67;;;;;;;20.83;65.74;97559.72;4970557;28;20100;-76
2021/08/11 06:31:25;;;;;;;4.18;3.13;;;;;;;20.89;65.69;97558.53;4971582;28;20034;-76
2021/08/11 06:33:52;;;;;;;4.75;3.50;;;;;;;20.90;66.32;97554.78;4939025;28;20026;-76
2021/08/11 06:36:17;;;;;;;3.55;3.25;;;;;;;20.97;65.59;97551.69;4955581;28;20432;-76
2021/08/11 06:38:43;;;;;;;3.50;3.00;;;;;;;21.08;65.56;97561.75;4953743;28;20084;-76
2021/08/11 06:41:08;;;;;;;3.90;3.33;;;;;;;21.15;65.34;97563.94;4949421;28;20030;-76
2021/08/11 06:43:34;;;;;;;5.45;3.50;;;;;;;21.29;64.53;97559.34;4955083;28;20031;-76
2021/08/11 06:45:59;;;;;;;5.18;3.75;;;;;;;21.41;64.44;97560.66;4939039;28;20362;-76
2021/08/11 06:48:24;;;;;;;4.93;3.40;;;;;;;21.61;64.59;97564.63;4988912;28;20035;-76
2021/08/11 06:50:50;;;;;;;4.18;2.90;;;;;;;21.92;63.64;97567.22;4943280;28;20132;-76
2021/08/11 06:53:15;;;;;;;4.00;3.40;;;;;;;22.31;62.93;97564.81;4938643;28;20043;-76
2021/08/11 06:55:41;;;;;;;4.78;2.90;;;;;;;22.62;59.30;97568.09;4967183;28;20042;-76
2021/08/11 06:58:06;;;;;;;3.83;3.53;;;;;;;23.15;58.93;97566.19;4955374;28;20034;-76
2021/08/11 07:00:32;;;;;;;5.00;3.00;;;;;;;23.51;57.59;97561.50;4971405;28;20035;-76
2021/08/11 07:02:57;;;;;;;3.92;3.13;;;;;;;23.84;57.32;97558.25;4966950;28;20116;-76
2021/08/11 07:05:23;;;;;;;6.97;3.30;;;;;;;24.20;56.19;97562.25;4958058;28;20118;-76
2021/08/11 07:07:49;;;;;;;5.00;3.20;;;;;;;24.55;55.65;97557.47;4954306;28;20113;-76
2021/08/11 07:10:16;;;;;;;4.38;3.08;;;;;;;24.61;53.51;97555.38;4975024;28;20531;-76
2021/08/11 07:12:42;;;;;;;4.60;2.80;;;;;;;24.82;52.93;97558.78;4992448;28;20041;-76
2021/08/11 07:15:09;;;;;;;4.75;3.40;;;;;;;25.10;52.62;97558.19;4958930;28;20022;-76
2021/08/11 07:17:34;;;;;;;5.13;3.03;;;;;;;25.34;51.06;97556.69;4969087;28;20034;-76
2021/08/11 07:20:00;;;;;;;3.00;2.70;;;;;;;25.66;51.46;97552.38;4959036;28;20033;-77
2021/08/11 07:22:25;;;;;;;2.83;2.40;;;;;;;26.05;50.17;97562.72;4943264;28;20030;-77
2021/08/11 07:24:53;;;;;;;4.93;3.20;;;;;;;26.23;49.86;97558.66;4959311;28;20038;-76
2021/08/11 07:27:19;;;;;;;3.28;2.88;;;;;;;26.10;49.23;97565.94;4958884;28;20026;-77
2021/08/11 07:29:44;;;;;;;3.47;2.78;;;;;;;25.85;49.31;97561.72;4957506;28;20038;-76
2021/08/11 07:32:10;;;;;;;6.35;3.10;;;;;;;25.90;49.48;97562.25;4958769;28;20030;-76
2021/08/11 07:34:38;;;;;;;4.18;2.70;;;;;;;25.67;49.49;97555.81;4942394;28;20104;-76
2021/08/11 07:37:04;;;;;;;4.53;3.13;;;;;;;25.97;49.42;97557.16;4957049;28;20065;-76
2021/08/11 07:39:29;;;;;;;3.20;2.75;;;;;;;26.18;50.48;97561.56;4956158;28;20379;-76
2021/08/11 07:41:54;;;;;;;3.72;2.78;;;;;;;26.47;49.63;97557.78;4958914;28;20382;-76
2021/08/11 07:44:20;;;;;;;4.88;3.00;;;;;;;26.73;49.11;97553.94;4950855;28;20034;-76
2021/08/11 07:46:45;;;;;;;3.72;2.90;;;;;;;27.02;46.97;97566.16;4974518;28;20037;-76
2021/08/11 07:49:11;;;;;;;5.03;3.03;;;;;;;27.00;47.37;97567.63;4958261;28;20559;-76
2021/08/11 07:51:36;;;;;;;3.50;3.20;;;;;;;27.46;46.52;97562.66;4956090;28;20056;-76
2021/08/11 07:54:04;;;;;;;4.55;2.95;;;;;;;27.83;46.14;97571.16;4942259;28;20034;-76
2021/08/11 07:56:29;;;;;;;3.47;2.90;;;;;;;28.10;44.83;97563.34;4958209;28;20030;-76
2021/08/11 07:58:55;;;;;;;4.88;3.03;;;;;;;27.94;46.24;97571.44;4958527;28;20327;-76
2021/08/11 08:01:20;;;;;;;3.60;3.30;;;;;;;27.99;45.81;97573.84;4958383;28;20471;-77
2021/08/11 08:03:46;;;;;;;4.68;3.05;;;;;;;28.21;44.35;97577.75;4969802;28;20041;-76
2021/08/11 08:06:11;;;;;;;3.28;2.70;;;;;;;28.44;44.39;97571.69;4939838;28;20232;-76
2021/08/11 08:08:37;;;;;;;4.18;2.97;;;;;;;28.40;44.31;97576.22;4953394;28;20078;-76
2021/08/11 08:11:04;;;;;;;4.25;2.63;;;;;;;28.14;45.99;97582.19;4958099;28;20038;-76
2021/08/11 08:13:30;;;;;;;4.03;2.50;;;;;;;28.80;43.22;97568.97;4957325;28;20092;-77
2021/08/11 08:15:55;;;;;;;3.53;2.55;;;;;;;28.77;42.32;97573.91;4953790;28;20066;-76
2021/08/11 08:18:23;;;;;;;3.40;2.95;;;;;;;28.83;42.65;97570.94;4973960;28;20038;-77
2021/08/11 08:20:53;;;;;;;5.15;2.60;;;;;;;28.50;43.87;97572.97;4958603;28;20038;-77
2021/08/11 08:23:20;;;;;;;4.35;2.47;;;;;;;28.99;41.41;97562.78;4973428;28;20037;-76
2021/08/11 08:25:46;;;;;;;2.83;2.45;;;;;;;29.08;41.14;97569.47;4958009;28;20623;-76
2021/08/11 08:28:11;;;;;;;3.95;2.80;;;;;;;29.03;42.76;97574.34;4957911;28;20026;-76
2021/08/11 08:30:37;;;;;;;3.53;3.22;;;;;;;29.54;40.79;97574.06;4967856;28;20038;-77
2021/08/11 08:33:02;;;;;;;2.63;2.40;;;;;;;29.56;39.06;97573.69;4957343;28;20072;-76
2021/08/11 08:35:28;;;;;;;3.42;2.95;;;;;;;29.29;40.71;97571.00;4957361;28;20034;-76
2021/08/11 08:37:54;;;;;;;4.20;2.50;;;;;;;28.84;42.36;97581.31;4972684;28;20134;-76
2021/08/11 08:40:19;;;;;;;4.57;2.58;;;;;;;29.00;41.59;97575.06;4974039;28;20089;-76
2021/08/11 08:42:45;;;;;;;4.22;2.47;;;;;;;29.19;41.17;97577.72;4972194;28;20058;-76
2021/08/11 08:45:12;;;;;;;4.03;2.53;;;;;;;29.09;41.72;97584.41;4973557;28;20026;-76
2021/08/11 08:47:39;;;;;;;2.63;2.42;;;;;;;29.20;40.48;97584.66;4941227;28;20053;-76
2021/08/11 08:50:09;;;;;;;2.78;2.58;;;;;;;29.53;40.91;97583.25;4951654;28;20042;-76
2021/08/11 08:52:38;;;;;;;2.83;2.13;;;;;;;29.28;40.58;97588.22;4948196;28;20485;-76
2021/08/11 08:55:05;;;;;;;3.90;2.63;;;;;;;29.26;41.11;97582.44;4957128;28;20493;-76
2021/08/11 08:57:30;;;;;;;3.42;3.13;;;;;;;29.52;40.74;97582.47;4973484;28;20121;-76
2021/08/11 08:59:56;;;;;;;2.85;2.40;;;;;;;29.54;40.79;97581.34;4957179;28;20557;-76
2021/08/11 09:02:22;;;;;;;2.55;2.22;;;;;;;29.39;40.63;97581.13;4949606;28;20089;-76
2021/08/11 09:04:47;;;;;;;2.45;2.15;;;;;;;29.23;40.68;97578.53;4956764;28;20385;-76
2021/08/11 09:07:19;;;;;;;2.40;2.20;;;;;;;29.02;40.82;97588.88;4953083;28;20140;-76
2021/08/11 09:09:47;;;;;;;2.72;2.30;;;;;;;28.97;40.74;97583.81;4972731;28;20034;-76
2021/08/11 09:12:14;;;;;;;2.97;2.00;;;;;;;28.85;40.92;97593.56;4973547;28;20054;-76
2021/08/11 09:14:44;;;;;;;3.35;2.85;;;;;;;28.83;41.71;97587.03;4972584;28;20489;-76
2021/08/11 09:17:10;;;;;;;3.67;2.42;;;;;;;28.74;41.83;97588.00;4952367;28;20040;-76
2021/08/11 09:19:46;;;;;;;2.67;2.42;;;;;;;28.57;41.53;97599.16;4954871;28;20041;-76
2021/08/11 09:22:14;;;;;;;2.90;2.15;;;;;;;29.15;41.28;97598.31;4990047;28;20034;-76
2021/08/11 09:24:40;;;;;;;3.35;2.78;;;;;;;29.73;40.43;97593.91;4988528;28;20105;-76
2021/08/11 09:27:23;;;;;;;2.30;2.10;;;;;;;29.88;40.05;97598.38;4954997;28;20034;-76
2021/08/11 09:30:16;;;;;;;2.50;2.30;;;;;;;30.01;39.16;97604.31;4973109;28;20113;-76
2021/08/11 09:32:53;;;;;;;3.75;2.58;;;;;;;30.05;38.90;97597.06;4955603;28;20434;-76
2021/08/11 09:35:42;;;;;;;3.35;2.17;;;;;;;29.99;38.98;97596.63;4972417;28;20039;-76
2021/08/11 09:38:13;;;;;;;2.40;2.20;;;;;;;29.62;38.93;97599.88;4988672;28;20579;-76
2021/08/11 09:40:40;;;;;;;2.45;2.10;;;;;;;29.48;39.48;97594.28;4950313;28;20500;-76
2021/08/11 09:43:06;;;;;;;3.28;2.50;;;;;;;29.15;40.05;97603.69;4971921;28;20536;-76
2021/08/11 09:45:49;;;;;;;3.33;2.70;;;;;;;28.77;40.51;97599.91;4989404;28;20089;-76
2021/08/11 09:48:16;;;;;;;3.28;2.20;;;;;;;28.89;39.99;97599.78;4972376;28;20349;-76
2021/08/11 09:50:46;;;;;;;3.13;2.67;;;;;;;28.77;41.17;97603.38;4954016;28;20555;-76
2021/08/11 09:53:25;;;;;;;3.53;2.88;;;;;;;28.72;41.41;97597.50;4981951;28;20046;-76
2021/08/11 09:56:13;;;;;;;3.17;2.58;;;;;;;28.93;41.27;97603.28;4989770;28;20141;-76
2021/08/11 09:58:39;;;;;;;3.70;2.67;;;;;;;28.96;41.36;97607.16;4940413;28;20041;-76
2021/08/11 10:01:11;;;;;;;2.55;2.35;;;;;;;28.92;40.44;97604.41;4972082;28;20052;-76
2021/08/11 10:03:59;;;;;;;2.72;2.30;;;;;;;28.43;41.29;97610.34;4980801;28;20472;-76
2021/08/11 10:06:33;;;;;;;4.97;3.25;;;;;;;28.45;42.38;97610.00;4971237;28;20031;-76
2021/08/11 10:09:24;;;;;;;3.80;2.43;;;;;;;28.46;41.80;97614.19;4967947;28;20086;-76
2021/08/11 10:11:54;;;;;;;2.30;2.10;;;;;;;28.61;41.44;97612.63;4956061;28;20037;-76
2021/08/11 10:14:22;;;;;;;2.45;1.95;;;;;;;28.64;42.61;97606.56;4955712;28;20358;-76
2021/08/11 10:16:49;;;;;;;2.60;2.20;;;;;;;29.23;41.41;97608.03;4955572;28;20030;-76
2021/08/11 10:19:14;;;;;;;4.00;2.05;;;;;;;29.36;40.10;97597.16;4955384;28;20037;-76
2021/08/11 10:21:40;;;;;;;2.53;2.10;;;;;;;29.51;40.45;97604.31;4930487;28;20035;-76
2021/08/11 10:24:05;;;;;;;2.30;2.10;;;;;;;29.59;38.61;97605.94;4988698;28;20294;-76
2021/08/11 10:26:34;;;;;;;4.57;2.65;;;;;;;30.00;39.39;97611.56;4971777;28;20026;-76
2021/08/11 10:29:00;;;;;;;2.30;2.10;;;;;;;30.33;40.12;97602.06;4943051;28;20034;-76
2021/08/11 10:31:26;;;;;;;1.52;1.42;;;;;;;31.02;35.99;97603.66;4971868;28;20363;-76
2021/08/11 10:33:52;;;;;;;2.53;1.95;;;;;;;31.16;35.83;97611.84;4939324;28;20098;-76
2021/08/11 10:36:17;;;;;;;2.20;1.98;;;;;;;30.83;36.28;97603.78;4955229;28;20096;-77
2021/08/11 10:38:45;;;;;;;2.08;1.90;;;;;;;31.07;35.28;97597.94;4954364;28;20050;-76
2021/08/11 10:41:15;;;;;;;1.77;1.67;;;;;;;30.84;36.44;97606.13;4955400;28;20489;-76
2021/08/11 10:43:43;;;;;;;1.90;1.80;;;;;;;30.53;35.59;97602.69;4955195;28;20034;-76
2021/08/11 10:46:13;;;;;;;2.45;2.00;;;;;;;30.18;36.64;97600.31;4955618;28;20065;-76
2021/08/11 10:48:39;;;;;;;1.67;1.58;;;;;;;29.85;38.16;97607.13;4971794;28;20100;-76
2021/08/11 10:51:04;;;;;;;2.33;1.80;;;;;;;29.63;38.08;97595.28;4947556;28;20486;-76
2021/08/11 10:53:30;;;;;;;2.67;1.98;;;;;;;29.70;38.21;97590.03;4985870;28;20034;-76
2021/08/11 10:55:57;;;;;;;1.90;1.80;;;;;;;30.16;39.08;97592.63;4955593;28;20022;-76
2021/08/11 10:58:43;;;;;;;1.70;1.60;;;;;;;30.19;37.90;97593.81;4969987;28;20049;-76
2021/08/11 11:01:35;;;;;;;2.53;1.80;;;;;;;30.21;39.83;97592.31;4955200;28;20389;-76
2021/08/11 11:04:02;;;;;;;2.40;2.20;;;;;;;31.24;37.60;97585.00;4967006;28;20038;-76
2021/08/11 11:06:49;;;;;;;2.67;2.47;;;;;;;31.13;36.59;97596.44;4970191;28;20034;-76
2021/08/11 11:09:16;;;;;;;2.13;1.95;;;;;;;31.58;34.67;97582.22;4964948;28;20045;-76
2021/08/11 11:11:42;;;;;;;1.77;1.67;;;;;;;31.78;34.23;97586.22;4958929;28;20113;-76
2021/08/11 11:14:46;;;;;;;2.05;1.60;;;;;;;31.88;33.84;97577.44;4954773;28;20604;-76
2021/08/11 11:17:13;;;;;;;2.17;1.83;;;;;;;32.22;33.41;97577.25;4967132;28;20042;-76
2021/08/11 11:20:04;;;;;;;2.08;1.85;;;;;;;32.09;35.43;97582.19;4939088;28;20037;-76
2021/08/11 11:22:34;;;;;;;2.25;1.95;;;;;;;32.23;33.73;97568.00;4970781;28;20030;-76
2021/08/11 11:25:00;;;;;;;2.90;2.10;;;;;;;32.15;33.69;97579.94;4955035;28;20030;-76
2021/08/11 11:27:44;;;;;;;2.35;1.90;;;;;;;31.96;32.66;97580.97;4963881;28;20041;-76
2021/08/11 11:30:13;;;;;;;2.37;2.17;;;;;;;31.63;33.96;97574.56;4988558;28;20062;-76
2021/08/11 11:32:39;;;;;;;2.83;2.10;;;;;;;31.46;33.99;97575.19;4954916;28;20776;-76
2021/08/11 11:35:21;;;;;;;2.10;1.90;;;;;;;31.17;35.01;97580.34;4954740;28;20022;-76
2021/08/11 11:38:07;;;;;;;2.17;1.80;;;;;;;31.19;34.10;97575.38;4954657;28;20385;-76
2021/08/11 11:40:55;;;;;;;2.47;2.28;;;;;;;30.93;36.10;97576.25;4955200;28;20030;-76